sensor_id;sensor_type;location;lat;lon;timestamp;pressure;altitude;pressure_sealevel;temperature;humidity
12486;BME280;6307;46.804;11.580;2022-12-18T00:01:24;-20775.94;;;-2.49;100.00
12486;BME280;6307;46.804;11.580;2022-12-18T00:03:52;-20785.78;;;-2.17;100.00
12486;BME280;6307;46.804;11.580;2022-12-18T00:06:19;-20783.34;;;-2.25;100.00
12486;BME280;6307;46.804;11.580;2022-12-18T00:08:47;-20777.28;;;-2.45;100.00
12486;BME280;6307;46.804;11.580;2022-12-18T00:11:16;-20770.78;;;-2.66;100.00
12486;BME280;6307;46.804;11.580;2022-12-18T00:13:44;-20772.16;;;-2.62;100.00
12486;BME280;6307;46.804;11.580;2022-12-18T00:16:14;-20772.00;;;-2.62;100.00
12486;BME280;6307;46.804;11.580;2022-12-18T00:18:45;-20775.03;;;-2.52;100.00
12486;BME280;6307;46.804;11.580;2022-12-18T00:21:13;-20776.84;;;-2.46;100.00
12486;BME280;6307;46.804;11.580;2022-12-18T00:23:41;-20771.09;;;-2.65;100.00
12486;BME280;6307;46.804;11.580;2022-12-18T00:26:32;-20772.31;;;-2.61;100.00
12486;BME280;6307;46.804;11.580;2022-12-18T00:29:11;-20769.88;;;-2.69;100.00
12486;BME280;6307;46.804;11.580;2022-12-18T00:31:42;-20770.03;;;-2.69;100.00
12486;BME280;6307;46.804;11.580;2022-12-18T00:34:10;-20766.88;;;-2.79;100.00
12486;BME280;6307;46.804;11.580;2022-12-18T00:36:38;-20773.97;;;-2.56;100.00
12486;BME280;6307;46.804;11.580;2022-12-18T00:39:04;-20771.56;;;-2.64;100.00
12486;BME280;6307;46.804;11.580;2022-12-18T00:41:31;-20764.28;;;-2.88;100.00
12486;BME280;6307;46.804;11.580;2022-12-18T00:44:17;-20761.88;;;-2.96;100.00
12486;BME280;6307;46.804;11.580;2022-12-18T00:46:44;-20770.03;;;-2.69;100.00
12486;BME280;6307;46.804;11.580;2022-12-18T00:49:11;-20771.84;;;-2.63;100.00
12486;BME280;6307;46.804;11.580;2022-12-18T00:51:38;-20766.41;;;-2.81;100.00
12486;BME280;6307;46.804;11.580;2022-12-18T00:54:04;-20764.75;;;-2.86;100.00
12486;BME280;6307;46.804;11.580;2022-12-18T00:56:31;-20764.44;;;-2.87;100.00
12486;BME280;6307;46.804;11.580;2022-12-18T00:58:57;-20766.09;;;-2.82;100.00
12486;BME280;6307;46.804;11.580;2022-12-18T01:01:23;-20767.91;;;-2.76;100.00
12486;BME280;6307;46.804;11.580;2022-12-18T01:03:49;-20765.34;;;-2.84;100.00
12486;BME280;6307;46.804;11.580;2022-12-18T01:06:16;-20756.56;;;-3.13;100.00
12486;BME280;6307;46.804;11.580;2022-12-18T01:08:42;-20767.47;;;-2.77;100.00
12486;BME280;6307;46.804;11.580;2022-12-18T01:11:14;-20758.53;;;-3.07;100.00
12486;BME280;6307;46.804;11.580;2022-12-18T01:13:42;-20759.13;;;-3.05;100.00
12486;BME280;6307;46.804;11.580;2022-12-18T01:16:15;-20760.06;;;-3.02;100.00
12486;BME280;6307;46.804;11.580;2022-12-18T01:18:41;-20757.31;;;-3.11;100.00
12486;BME280;6307;46.804;11.580;2022-12-18T01:21:10;-20755.50;;;-3.17;100.00
12486;BME280;6307;46.804;11.580;2022-12-18T01:23:38;-20761.88;;;-2.96;100.00
12486;BME280;6307;46.804;11.580;2022-12-18T01:26:10;-20753.53;;;-3.23;100.00
12486;BME280;6307;46.804;11.580;2022-12-18T01:28:39;-20758.69;;;-3.06;100.00
12486;BME280;6307;46.804;11.580;2022-12-18T01:31:13;-20756.41;;;-3.14;100.00
12486;BME280;6307;46.804;11.580;2022-12-18T01:33:40;-20757.63;;;-3.10;100.00
12486;BME280;6307;46.804;11.580;2022-12-18T01:36:07;-20757.47;;;-3.10;100.00
12486;BME280;6307;46.804;11.580;2022-12-18T01:38:34;-20753.25;;;-3.24;100.00
12486;BME280;6307;46.804;11.580;2022-12-18T01:41:01;-20754.75;;;-3.19;100.00
12486;BME280;6307;46.804;11.580;2022-12-18T01:43:48;-20753.41;;;-3.24;100.00
12486;BME280;6307;46.804;11.580;2022-12-18T01:46:18;-20755.66;;;-3.16;100.00
12486;BME280;6307;46.804;11.580;2022-12-18T01:48:51;-20756.13;;;-3.15;100.00
12486;BME280;6307;46.804;11.580;2022-12-18T01:51:22;-20750.97;;;-3.32;100.00
12486;BME280;6307;46.804;11.580;2022-12-18T01:53:49;-20751.28;;;-3.31;100.00
12486;BME280;6307;46.804;11.580;2022-12-18T01:56:17;-20752.34;;;-3.27;100.00
12486;BME280;6307;46.804;11.580;2022-12-18T01:59:05;-20751.72;;;-3.29;100.00
12486;BME280;6307;46.804;11.580;2022-12-18T02:01:36;-20757.47;;;-3.10;100.00
12486;BME280;6307;46.804;11.580;2022-12-18T02:06:56;-20756.88;;;-3.12;100.00
12486;BME280;6307;46.804;11.580;2022-12-18T02:09:51;-20748.56;;;-3.40;100.00
12486;BME280;6307;46.804;11.580;2022-12-18T02:18:58;-20747.50;;;-3.43;100.00
12486;BME280;6307;46.804;11.580;2022-12-18T02:21:55;-20755.22;;;-3.18;100.00
12486;BME280;6307;46.804;11.580;2022-12-18T02:27:39;-20751.44;;;-3.30;100.00
12486;BME280;6307;46.804;11.580;2022-12-18T02:30:09;-20747.03;;;-3.45;100.00
12486;BME280;6307;46.804;11.580;2022-12-18T02:32:39;-20744.47;;;-3.53;100.00
12486;BME280;6307;46.804;11.580;2022-12-18T02:35:13;-20741.28;;;-3.64;100.00
12486;BME280;6307;46.804;11.580;2022-12-18T02:37:45;-20742.50;;;-3.60;100.00
12486;BME280;6307;46.804;11.580;2022-12-18T02:40:14;-20741.75;;;-3.62;100.00
12486;BME280;6307;46.804;11.580;2022-12-18T02:42:42;-20745.69;;;-3.49;100.00
12486;BME280;6307;46.804;11.580;2022-12-18T02:45:08;-20740.22;;;-3.67;100.00
12486;BME280;6307;46.804;11.580;2022-12-18T02:47:40;-20742.50;;;-3.60;100.00
12486;BME280;6307;46.804;11.580;2022-12-18T02:53:05;-20742.19;;;-3.61;100.00
12486;BME280;6307;46.804;11.580;2022-12-18T03:03:59;-20737.66;;;-3.76;100.00
12486;BME280;6307;46.804;11.580;2022-12-18T03:06:39;-20737.50;;;-3.76;100.00
12486;BME280;6307;46.804;11.580;2022-12-18T03:09:15;-20736.13;;;-3.81;100.00
12486;BME280;6307;46.804;11.580;2022-12-18T03:11:54;-20728.72;;;-4.05;100.00
12486;BME280;6307;46.804;11.580;2022-12-18T03:14:56;-20734.94;;;-3.85;100.00
12486;BME280;6307;46.804;11.580;2022-12-18T03:17:31;-20734.03;;;-3.88;100.00
12486;BME280;6307;46.804;11.580;2022-12-18T03:20:04;-20735.22;;;-3.84;100.00
12486;BME280;6307;46.804;11.580;2022-12-18T03:22:36;-20732.66;;;-3.92;100.00
12486;BME280;6307;46.804;11.580;2022-12-18T03:25:07;-20736.91;;;-3.78;100.00
12486;BME280;6307;46.804;11.580;2022-12-18T03:27:40;-20733.41;;;-3.90;100.00
12486;BME280;6307;46.804;11.580;2022-12-18T03:30:12;-20733.25;;;-3.90;100.00
12486;BME280;6307;46.804;11.580;2022-12-18T03:35:46;-20732.97;;;-3.91;100.00
12486;BME280;6307;46.804;11.580;2022-12-18T03:38:13;-20736.28;;;-3.80;100.00
12486;BME280;6307;46.804;11.580;2022-12-18T03:40:45;-20727.50;;;-4.09;100.00
12486;BME280;6307;46.804;11.580;2022-12-18T03:44:09;-20730.22;;;-4.00;100.00
12486;BME280;6307;46.804;11.580;2022-12-18T03:46:48;-20734.47;;;-3.86;100.00
12486;BME280;6307;46.804;11.580;2022-12-18T03:50:12;-20728.72;;;-4.05;100.00
12486;BME280;6307;46.804;11.580;2022-12-18T03:55:13;-20736.75;;;-3.79;100.00
12486;BME280;6307;46.804;11.580;2022-12-18T03:57:41;-20737.34;;;-3.77;100.00
12486;BME280;6307;46.804;11.580;2022-12-18T04:00:14;-20728.72;;;-4.05;100.00
12486;BME280;6307;46.804;11.580;2022-12-18T04:02:54;-20729.94;;;-4.01;100.00
12486;BME280;6307;46.804;11.580;2022-12-18T04:05:25;-20726.16;;;-4.14;100.00
12486;BME280;6307;46.804;11.580;2022-12-18T04:07:53;-20721.91;;;-4.28;100.00
12486;BME280;6307;46.804;11.580;2022-12-18T04:10:21;-20720.69;;;-4.32;100.00
12486;BME280;6307;46.804;11.580;2022-12-18T04:12:47;-20728.13;;;-4.07;100.00
12486;BME280;6307;46.804;11.580;2022-12-18T04:15:13;-20727.66;;;-4.09;100.00
12486;BME280;6307;46.804;11.580;2022-12-18T04:17:47;-20727.97;;;-4.08;100.00
12486;BME280;6307;46.804;11.580;2022-12-18T04:20:15;-20719.63;;;-4.35;100.00
12486;BME280;6307;46.804;11.580;2022-12-18T04:22:42;-20722.81;;;-4.25;100.00
12486;BME280;6307;46.804;11.580;2022-12-18T04:25:08;-20724.63;;;-4.19;100.00
12486;BME280;6307;46.804;11.580;2022-12-18T04:27:35;-20723.41;;;-4.23;100.00
12486;BME280;6307;46.804;11.580;2022-12-18T04:30:01;-20719.19;;;-4.37;100.00
12486;BME280;6307;46.804;11.580;2022-12-18T04:32:27;-20715.09;;;-4.50;100.00
12486;BME280;6307;46.804;11.580;2022-12-18T04:34:53;-20721.00;;;-4.31;100.00
12486;BME280;6307;46.804;11.580;2022-12-18T04:37:19;-20723.56;;;-4.22;100.00
12486;BME280;6307;46.804;11.580;2022-12-18T04:39:46;-20717.97;;;-4.41;100.00
12486;BME280;6307;46.804;11.580;2022-12-18T04:42:12;-20718.72;;;-4.38;100.00
12486;BME280;6307;46.804;11.580;2022-12-18T04:44:38;-20726.75;;;-4.12;100.00
12486;BME280;6307;46.804;11.580;2022-12-18T04:47:05;-20725.25;;;-4.17;100.00
12486;BME280;6307;46.804;11.580;2022-12-18T04:49:31;-20720.25;;;-4.33;100.00
12486;BME280;6307;46.804;11.580;2022-12-18T04:51:57;-20724.63;;;-4.19;100.00
12486;BME280;6307;46.804;11.580;2022-12-18T04:54:23;-20724.94;;;-4.18;100.00
12486;BME280;6307;46.804;11.580;2022-12-18T04:56:49;-20725.53;;;-4.16;100.00
12486;BME280;6307;46.804;11.580;2022-12-18T04:59:15;-20721.31;;;-4.30;100.00
12486;BME280;6307;46.804;11.580;2022-12-18T05:01:41;-20722.97;;;-4.24;100.00
12486;BME280;6307;46.804;11.580;2022-12-18T05:04:07;-20716.44;;;-4.46;100.00
12486;BME280;6307;46.804;11.580;2022-12-18T05:06:33;-20712.06;;;-4.60;100.00
12486;BME280;6307;46.804;11.580;2022-12-18T05:09:00;-20713.13;;;-4.57;100.00
12486;BME280;6307;46.804;11.580;2022-12-18T05:11:26;-20707.06;;;-4.77;100.00
12486;BME280;6307;46.804;11.580;2022-12-18T05:13:52;-20709.03;;;-4.70;100.00
12486;BME280;6307;46.804;11.580;2022-12-18T05:16:21;-20716.75;;;-4.45;100.00
12486;BME280;6307;46.804;11.580;2022-12-18T05:18:47;-20714.50;;;-4.52;100.00
12486;BME280;6307;46.804;11.580;2022-12-18T05:21:13;-20713.88;;;-4.54;100.00
12486;BME280;6307;46.804;11.580;2022-12-18T05:23:39;-20714.34;;;-4.53;100.00
12486;BME280;6307;46.804;11.580;2022-12-18T05:26:06;-20714.03;;;-4.54;100.00
12486;BME280;6307;46.804;11.580;2022-12-18T05:28:34;-20710.69;;;-4.65;100.00
12486;BME280;6307;46.804;11.580;2022-12-18T05:31:03;-20705.84;;;-4.81;100.00
12486;BME280;6307;46.804;11.580;2022-12-18T05:33:31;-20704.34;;;-4.86;100.00
12486;BME280;6307;46.804;11.580;2022-12-18T05:36:01;-20705.41;;;-4.82;100.00
12486;BME280;6307;46.804;11.580;2022-12-18T05:38:30;-20708.44;;;-4.72;100.00
12486;BME280;6307;46.804;11.580;2022-12-18T05:40:57;-20704.19;;;-4.86;100.00
12486;BME280;6307;46.804;11.580;2022-12-18T05:43:24;-20705.53;;;-4.82;100.00
12486;BME280;6307;46.804;11.580;2022-12-18T05:45:52;-20708.56;;;-4.72;100.00
12486;BME280;6307;46.804;11.580;2022-12-18T05:48:19;-20698.72;;;-5.04;100.00
12486;BME280;6307;46.804;11.580;2022-12-18T05:50:47;-20711.75;;;-4.61;100.00
12486;BME280;6307;46.804;11.580;2022-12-18T05:53:17;-20711.91;;;-4.61;100.00
12486;BME280;6307;46.804;11.580;2022-12-18T05:55:45;-20708.56;;;-4.72;100.00
12486;BME280;6307;46.804;11.580;2022-12-18T05:58:12;-20707.38;;;-4.76;100.00
12486;BME280;6307;46.804;11.580;2022-12-18T06:00:44;-20703.72;;;-4.88;100.00
12486;BME280;6307;46.804;11.580;2022-12-18T06:03:11;-20699.78;;;-5.01;100.00
12486;BME280;6307;46.804;11.580;2022-12-18T06:05:40;-20705.84;;;-4.81;100.00
12486;BME280;6307;46.804;11.580;2022-12-18T06:08:09;-20700.72;;;-4.98;100.00
12486;BME280;6307;46.804;11.580;2022-12-18T06:10:35;-20702.22;;;-4.93;100.00
12486;BME280;6307;46.804;11.580;2022-12-18T06:13:02;-20701.31;;;-4.96;100.00
12486;BME280;6307;46.804;11.580;2022-12-18T06:15:28;-20702.97;;;-4.90;100.00
12486;BME280;6307;46.804;11.580;2022-12-18T06:17:54;-20702.97;;;-4.90;100.00
12486;BME280;6307;46.804;11.580;2022-12-18T06:20:21;-20706.47;;;-4.79;100.00
12486;BME280;6307;46.804;11.580;2022-12-18T06:22:47;-20701.47;;;-4.95;100.00
12486;BME280;6307;46.804;11.580;2022-12-18T06:25:13;-20702.06;;;-4.93;100.00
12486;BME280;6307;46.804;11.580;2022-12-18T06:27:40;-20699.19;;;-5.03;100.00
12486;BME280;6307;46.804;11.580;2022-12-18T06:30:07;-20700.41;;;-4.99;100.00
12486;BME280;6307;46.804;11.580;2022-12-18T06:32:33;-20697.06;;;-5.10;100.00
12486;BME280;6307;46.804;11.580;2022-12-18T06:35:00;-20697.97;;;-5.07;100.00
12486;BME280;6307;46.804;11.580;2022-12-18T06:37:26;-20699.78;;;-5.01;100.00
12486;BME280;6307;46.804;11.580;2022-12-18T06:39:53;-20701.31;;;-4.96;100.00
12486;BME280;6307;46.804;11.580;2022-12-18T06:42:23;-20698.72;;;-5.04;100.00
12486;BME280;6307;46.804;11.580;2022-12-18T06:44:49;-20699.50;;;-5.02;100.00
12486;BME280;6307;46.804;11.580;2022-12-18T06:47:15;-20696.31;;;-5.12;100.00
12486;BME280;6307;46.804;11.580;2022-12-18T06:49:41;-20687.69;;;-5.41;100.00
12486;BME280;6307;46.804;11.580;2022-12-18T06:52:08;-20694.03;;;-5.20;100.00
12486;BME280;6307;46.804;11.580;2022-12-18T06:54:34;-20696.63;;;-5.11;100.00
12486;BME280;6307;46.804;11.580;2022-12-18T06:57:00;-20699.19;;;-5.03;100.00
12486;BME280;6307;46.804;11.580;2022-12-18T06:59:26;-20696.75;;;-5.11;100.00
12486;BME280;6307;46.804;11.580;2022-12-18T07:01:52;-20700.84;;;-4.97;100.00
12486;BME280;6307;46.804;11.580;2022-12-18T07:04:19;-20692.06;;;-5.26;100.00
12486;BME280;6307;46.804;11.580;2022-12-18T07:06:45;-20697.22;;;-5.09;100.00
12486;BME280;6307;46.804;11.580;2022-12-18T07:09:11;-20696.75;;;-5.11;100.00
12486;BME280;6307;46.804;11.580;2022-12-18T07:11:37;-20692.69;;;-5.24;100.00
12486;BME280;6307;46.804;11.580;2022-12-18T07:14:03;-20697.97;;;-5.07;100.00
12486;BME280;6307;46.804;11.580;2022-12-18T07:16:29;-20693.44;;;-5.22;100.00
12486;BME280;6307;46.804;11.580;2022-12-18T07:18:56;-20696.47;;;-5.12;100.00
12486;BME280;6307;46.804;11.580;2022-12-18T07:21:23;-20700.25;;;-4.99;100.00
12486;BME280;6307;46.804;11.580;2022-12-18T07:23:50;-20700.84;;;-4.97;100.00
12486;BME280;6307;46.804;11.580;2022-12-18T07:26:18;-20693.72;;;-5.21;100.00
12486;BME280;6307;46.804;11.580;2022-12-18T07:28:46;-20701.16;;;-4.96;100.00
12486;BME280;6307;46.804;11.580;2022-12-18T07:31:18;-20705.41;;;-4.82;100.00
12486;BME280;6307;46.804;11.580;2022-12-18T07:33:46;-20707.53;;;-4.75;100.00
12486;BME280;6307;46.804;11.580;2022-12-18T07:36:13;-20698.72;;;-5.04;100.00
12486;BME280;6307;46.804;11.580;2022-12-18T07:38:39;-20703.72;;;-4.88;100.00
12486;BME280;6307;46.804;11.580;2022-12-18T07:41:11;-20698.59;;;-5.05;100.00
12486;BME280;6307;46.804;11.580;2022-12-18T07:43:39;-20701.47;;;-4.95;100.00
12486;BME280;6307;46.804;11.580;2022-12-18T07:46:07;-20707.81;;;-4.74;100.00
12486;BME280;6307;46.804;11.580;2022-12-18T07:48:34;-20701.47;;;-4.95;100.00
12486;BME280;6307;46.804;11.580;2022-12-18T07:51:05;-20701.59;;;-4.95;100.00
12486;BME280;6307;46.804;11.580;2022-12-18T07:53:33;-20706.31;;;-4.79;100.00
12486;BME280;6307;46.804;11.580;2022-12-18T07:56:05;-20701.31;;;-4.96;100.00
12486;BME280;6307;46.804;11.580;2022-12-18T07:58:34;-20702.81;;;-4.91;100.00
12486;BME280;6307;46.804;11.580;2022-12-18T08:01:05;-20698.13;;;-5.06;100.00
12486;BME280;6307;46.804;11.580;2022-12-18T08:03:32;-20697.66;;;-5.08;100.00
12486;BME280;6307;46.804;11.580;2022-12-18T08:06:03;-20710.41;;;-4.66;100.00
12486;BME280;6307;46.804;11.580;2022-12-18T08:08:32;-20700.84;;;-4.97;100.00
12486;BME280;6307;46.804;11.580;2022-12-18T08:10:59;-20705.09;;;-4.83;100.00
12486;BME280;6307;46.804;11.580;2022-12-18T08:13:26;-20700.09;;;-5.00;100.00
12486;BME280;6307;46.804;11.580;2022-12-18T08:18:33;-20708.56;;;-4.72;100.00
12486;BME280;6307;46.804;11.580;2022-12-18T08:21:27;-20704.34;;;-4.86;100.00
12486;BME280;6307;46.804;11.580;2022-12-18T08:23:57;-20701.31;;;-4.96;100.00
12486;BME280;6307;46.804;11.580;2022-12-18T08:26:25;-20701.59;;;-4.95;100.00
12486;BME280;6307;46.804;11.580;2022-12-18T08:28:55;-20705.09;;;-4.83;100.00
12486;BME280;6307;46.804;11.580;2022-12-18T08:31:23;-20709.63;;;-4.68;100.00
12486;BME280;6307;46.804;11.580;2022-12-18T08:33:51;-20709.78;;;-4.68;100.00
12486;BME280;6307;46.804;11.580;2022-12-18T08:36:19;-20710.41;;;-4.66;100.00
12486;BME280;6307;46.804;11.580;2022-12-18T08:38:46;-20714.78;;;-4.51;100.00
12486;BME280;6307;46.804;11.580;2022-12-18T08:41:13;-20714.34;;;-4.53;100.00
12486;BME280;6307;46.804;11.580;2022-12-18T08:43:41;-20708.88;;;-4.71;100.00
12486;BME280;6307;46.804;11.580;2022-12-18T08:46:27;-20710.69;;;-4.65;100.00
12486;BME280;6307;46.804;11.580;2022-12-18T08:49:07;-20710.56;;;-4.65;100.00
12486;BME280;6307;46.804;11.580;2022-12-18T08:51:34;-20719.78;;;-4.35;100.00
12486;BME280;6307;46.804;11.580;2022-12-18T08:54:01;-20718.72;;;-4.38;100.00
12486;BME280;6307;46.804;11.580;2022-12-18T08:56:28;-20717.06;;;-4.44;100.00
12486;BME280;6307;46.804;11.580;2022-12-18T08:58:55;-20719.78;;;-4.35;100.00
12486;BME280;6307;46.804;11.580;2022-12-18T09:01:22;-20720.69;;;-4.32;100.00
12486;BME280;6307;46.804;11.580;2022-12-18T09:03:50;-20727.81;;;-4.08;100.00
12486;BME280;6307;46.804;11.580;2022-12-18T09:06:20;-20729.03;;;-4.04;100.00
12486;BME280;6307;46.804;11.580;2022-12-18T09:08:47;-20724.63;;;-4.19;100.00
12486;BME280;6307;46.804;11.580;2022-12-18T09:11:24;-20728.13;;;-4.07;100.00
12486;BME280;6307;46.804;11.580;2022-12-18T09:13:52;-20729.78;;;-4.02;100.00
12486;BME280;6307;46.804;11.580;2022-12-18T09:16:19;-20731.59;;;-3.96;100.00
12486;BME280;6307;46.804;11.580;2022-12-18T09:18:47;-20733.09;;;-3.91;100.00
12486;BME280;6307;46.804;11.580;2022-12-18T09:21:19;-20736.59;;;-3.79;100.00
12486;BME280;6307;46.804;11.580;2022-12-18T09:23:53;-20728.28;;;-4.07;100.00
12486;BME280;6307;46.804;11.580;2022-12-18T09:26:21;-20729.47;;;-4.03;100.00
12486;BME280;6307;46.804;11.580;2022-12-18T09:28:48;-20727.34;;;-4.10;100.00
12486;BME280;6307;46.804;11.580;2022-12-18T09:31:15;-20737.19;;;-3.77;100.00
12486;BME280;6307;46.804;11.580;2022-12-18T09:33:43;-20732.06;;;-3.94;100.00
12486;BME280;6307;46.804;11.580;2022-12-18T09:36:12;-20737.34;;;-3.77;100.00
12486;BME280;6307;46.804;11.580;2022-12-18T09:38:40;-20735.84;;;-3.82;100.00
12486;BME280;6307;46.804;11.580;2022-12-18T09:49:43;-20747.50;;;-3.43;100.00
12486;BME280;6307;46.804;11.580;2022-12-18T09:54:46;-20745.69;;;-3.49;100.00
12486;BME280;6307;46.804;11.580;2022-12-18T09:57:21;-20744.47;;;-3.53;100.00
12486;BME280;6307;46.804;11.580;2022-12-18T10:00:04;-20749.75;;;-3.36;100.00
12486;BME280;6307;46.804;11.580;2022-12-18T10:02:47;-20750.06;;;-3.35;100.00
12486;BME280;6307;46.804;11.580;2022-12-18T10:05:33;-20749.47;;;-3.37;100.00
12486;BME280;6307;46.804;11.580;2022-12-18T10:08:15;-20751.56;;;-3.30;100.00
12486;BME280;6307;46.804;11.580;2022-12-18T10:10:52;-20749.31;;;-3.37;100.00
12486;BME280;6307;46.804;11.580;2022-12-18T10:13:37;-20750.97;;;-3.32;100.00
12486;BME280;6307;46.804;11.580;2022-12-18T10:25:34;-20764.13;;;-2.88;99.05
12486;BME280;6307;46.804;11.580;2022-12-18T10:28:16;-20765.03;;;-2.85;99.46
12486;BME280;6307;46.804;11.580;2022-12-18T10:30:44;-20765.97;;;-2.82;98.58
12486;BME280;6307;46.804;11.580;2022-12-18T10:33:22;-20769.44;;;-2.71;100.00
12486;BME280;6307;46.804;11.580;2022-12-18T10:35:53;-20765.50;;;-2.84;100.00
12486;BME280;6307;46.804;11.580;2022-12-18T10:40:58;-20769.88;;;-2.69;100.00
12486;BME280;6307;46.804;11.580;2022-12-18T10:43:34;-20776.84;;;-2.46;95.45
12486;BME280;6307;46.804;11.580;2022-12-18T10:48:36;-20778.66;;;-2.40;97.93
12486;BME280;6307;46.804;11.580;2022-12-18T10:51:43;-20782.91;;;-2.26;95.43
12486;BME280;6307;46.804;11.580;2022-12-18T10:54:18;-20772.59;;;-2.60;94.58
12486;BME280;6307;46.804;11.580;2022-12-18T10:56:47;-20777.91;;;-2.43;93.15
12486;BME280;6307;46.804;11.580;2022-12-18T10:59:15;-20777.75;;;-2.43;95.74
12486;BME280;6307;46.804;11.580;2022-12-18T11:01:55;-20779.56;;;-2.37;92.72
12486;BME280;6307;46.804;11.580;2022-12-18T11:04:26;-20780.47;;;-2.34;92.27
12486;BME280;6307;46.804;11.580;2022-12-18T11:07:03;-20781.38;;;-2.31;90.42
12486;BME280;6307;46.804;11.580;2022-12-18T11:09:35;-20786.38;;;-2.15;90.17
12486;BME280;6307;46.804;11.580;2022-12-18T11:12:25;-20791.97;;;-1.96;89.24
12486;BME280;6307;46.804;11.580;2022-12-18T11:14:54;-20786.06;;;-2.16;90.41
12486;BME280;6307;46.804;11.580;2022-12-18T11:17:34;-20787.28;;;-2.12;90.21
12486;BME280;6307;46.804;11.580;2022-12-18T11:20:04;-20791.38;;;-1.98;87.96
12486;BME280;6307;46.804;11.580;2022-12-18T11:22:36;-20796.50;;;-1.81;86.19
12486;BME280;6307;46.804;11.580;2022-12-18T11:27:48;-20795.59;;;-1.84;90.01
12486;BME280;6307;46.804;11.580;2022-12-18T11:30:34;-20797.13;;;-1.79;91.88
12486;BME280;6307;46.804;11.580;2022-12-18T11:33:21;-20797.13;;;-1.79;90.95
12486;BME280;6307;46.804;11.580;2022-12-18T11:36:00;-20801.34;;;-1.65;88.45
12486;BME280;6307;46.804;11.580;2022-12-18T11:38:42;-20799.06;;;-1.73;89.11
12486;BME280;6307;46.804;11.580;2022-12-18T11:41:23;-20803.91;;;-1.57;85.93
12486;BME280;6307;46.804;11.580;2022-12-18T11:44:29;-20806.94;;;-1.47;92.09
12486;BME280;6307;46.804;11.580;2022-12-18T11:47:10;-20811.03;;;-1.33;94.15
12486;BME280;6307;46.804;11.580;2022-12-18T11:50:01;-20808.31;;;-1.42;88.24
12486;BME280;6307;46.804;11.580;2022-12-18T11:52:36;-20807.53;;;-1.45;91.17
12486;BME280;6307;46.804;11.580;2022-12-18T11:55:15;-20810.13;;;-1.36;89.87
12486;BME280;6307;46.804;11.580;2022-12-18T12:06:31;-20818.88;;;-1.07;84.66
12486;BME280;6307;46.804;11.580;2022-12-18T12:12:05;-20815.41;;;-1.19;83.23
12486;BME280;6307;46.804;11.580;2022-12-18T12:17:39;-20821.00;;;-1.00;83.96
12486;BME280;6307;46.804;11.580;2022-12-18T12:20:20;-20816.31;;;-1.16;84.11
12486;BME280;6307;46.804;11.580;2022-12-18T12:23:22;-20820.84;;;-1.01;83.91
12486;BME280;6307;46.804;11.580;2022-12-18T12:26:06;-20822.50;;;-0.95;82.98
12486;BME280;6307;46.804;11.580;2022-12-18T12:28:44;-20818.13;;;-1.10;82.86
12486;BME280;6307;46.804;11.580;2022-12-18T12:34:18;-20824.31;;;-0.89;86.73
12486;BME280;6307;46.804;11.580;2022-12-18T12:39:40;-20829.75;;;-0.71;85.31
12486;BME280;6307;46.804;11.580;2022-12-18T12:45:31;-20828.72;;;-0.75;85.88
12486;BME280;6307;46.804;11.580;2022-12-18T12:48:05;-20826.28;;;-0.83;86.25
12486;BME280;6307;46.804;11.580;2022-12-18T12:51:29;-20830.22;;;-0.70;82.11
12486;BME280;6307;46.804;11.580;2022-12-18T12:53:56;-20835.97;;;-0.51;83.23
12486;BME280;6307;46.804;11.580;2022-12-18T12:56:36;-20831.28;;;-0.66;83.46
12486;BME280;6307;46.804;11.580;2022-12-18T13:02:39;-20832.78;;;-0.61;83.15
12486;BME280;6307;46.804;11.580;2022-12-18T13:05:27;-20832.50;;;-0.62;82.76
12486;BME280;6307;46.804;11.580;2022-12-18T13:08:24;-20833.25;;;-0.60;80.07
12486;BME280;6307;46.804;11.580;2022-12-18T13:10:55;-20836.56;;;-0.49;79.68
12486;BME280;6307;46.804;11.580;2022-12-18T13:14:02;-20835.97;;;-0.51;80.78
12486;BME280;6307;46.804;11.580;2022-12-18T13:16:28;-20831.56;;;-0.65;81.74
12486;BME280;6307;46.804;11.580;2022-12-18T13:18:56;-20837.31;;;-0.46;82.53
12486;BME280;6307;46.804;11.580;2022-12-18T13:21:32;-20841.69;;;-0.32;84.80
12486;BME280;6307;46.804;11.580;2022-12-18T13:26:49;-20842.16;;;-0.30;83.20
12486;BME280;6307;46.804;11.580;2022-12-18T13:29:41;-20834.16;;;-0.57;86.43
12486;BME280;6307;46.804;11.580;2022-12-18T13:32:24;-20833.25;;;-0.60;87.86
12486;BME280;6307;46.804;11.580;2022-12-18T13:37:51;-20821.00;;;-1.00;89.08
12486;BME280;6307;46.804;11.580;2022-12-18T13:46:41;-20827.81;;;-0.78;88.18
12486;BME280;6307;46.804;11.580;2022-12-18T13:49:02;-20831.13;;;-0.67;88.86
12486;BME280;6307;46.804;11.580;2022-12-18T13:51:47;-20829.00;;;-0.74;88.12
12486;BME280;6307;46.804;11.580;2022-12-18T13:56:50;-20825.69;;;-0.85;88.64
12486;BME280;6307;46.804;11.580;2022-12-18T14:02:23;-20827.81;;;-0.78;89.49
12486;BME280;6307;46.804;11.580;2022-12-18T14:04:52;-20830.53;;;-0.69;89.33
12486;BME280;6307;46.804;11.580;2022-12-18T14:07:24;-20829.31;;;-0.73;89.93
12486;BME280;6307;46.804;11.580;2022-12-18T14:12:32;-20824.47;;;-0.89;90.39
12486;BME280;6307;46.804;11.580;2022-12-18T14:15:41;-20826.44;;;-0.82;90.38
12486;BME280;6307;46.804;11.580;2022-12-18T14:18:27;-20831.44;;;-0.66;87.48
12486;BME280;6307;46.804;11.580;2022-12-18T14:21:17;-20833.09;;;-0.60;86.53
12486;BME280;6307;46.804;11.580;2022-12-18T14:24:23;-20830.66;;;-0.68;86.56
12486;BME280;6307;46.804;11.580;2022-12-18T14:26:50;-20824.47;;;-0.89;88.81
12486;BME280;6307;46.804;11.580;2022-12-18T14:29:26;-20831.44;;;-0.66;87.89
12486;BME280;6307;46.804;11.580;2022-12-18T14:32:14;-20835.06;;;-0.54;86.93
12486;BME280;6307;46.804;11.580;2022-12-18T14:34:43;-20832.03;;;-0.64;86.92
12486;BME280;6307;46.804;11.580;2022-12-18T14:37:13;-20832.63;;;-0.62;86.82
12486;BME280;6307;46.804;11.580;2022-12-18T14:39:52;-20837.31;;;-0.46;86.53
12486;BME280;6307;46.804;11.580;2022-12-18T14:42:20;-20835.81;;;-0.51;87.27
12486;BME280;6307;46.804;11.580;2022-12-18T14:44:46;-20834.59;;;-0.55;89.84
12486;BME280;6307;46.804;11.580;2022-12-18T14:47:15;-20835.50;;;-0.52;88.02
12486;BME280;6307;46.804;11.580;2022-12-18T14:49:42;-20826.44;;;-0.82;92.03
12486;BME280;6307;46.804;11.580;2022-12-18T14:52:27;-20830.53;;;-0.69;90.66
12486;BME280;6307;46.804;11.580;2022-12-18T14:54:57;-20833.53;;;-0.59;91.38
12486;BME280;6307;46.804;11.580;2022-12-18T14:57:25;-20834.16;;;-0.57;92.89